sensor_id;sensor_type;location;lat;lon;timestamp;noise_LAeq;noise_LA_min;noise_LA_max;noise_LA01;noise_LA95
57092;Laerm;42968;52.094;4.328;2023-04-01T00:00:07;62.80;41.82;78.09;;
57092;Laerm;42968;52.094;4.328;2023-04-01T00:02:33;64.99;41.46;80.51;;
57092;Laerm;42968;52.094;4.328;2023-04-01T00:04:58;62.44;41.53;74.60;;
57092;Laerm;42968;52.094;4.328;2023-04-01T00:07:23;62.87;39.92;76.57;;
57092;Laerm;42968;52.094;4.328;2023-04-01T00:09:49;64.77;40.62;80.89;;
57092;Laerm;42968;52.094;4.328;2023-04-01T00:12:14;48.22;39.46;72.53;;
57092;Laerm;42968;52.094;4.328;2023-04-01T00:14:39;61.86;39.70;77.22;;
57092;Laerm;42968;52.094;4.328;2023-04-01T00:17:04;63.06;39.70;78.41;;
57092;Laerm;42968;52.094;4.328;2023-04-01T00:19:30;56.91;38.81;73.09;;
57092;Laerm;42968;52.094;4.328;2023-04-01T00:21:56;65.48;43.68;76.04;;
57092;Laerm;42968;52.094;4.328;2023-04-01T00:24:22;63.00;40.43;80.24;;
57092;Laerm;42968;52.094;4.328;2023-04-01T00:26:47;65.54;41.14;81.13;;
57092;Laerm;42968;52.094;4.328;2023-04-01T00:29:13;63.47;39.68;84.25;;
57092;Laerm;42968;52.094;4.328;2023-04-01T00:31:39;64.28;40.53;83.49;;
57092;Laerm;42968;52.094;4.328;2023-04-01T00:34:04;61.30;40.98;76.92;;
57092;Laerm;42968;52.094;4.328;2023-04-01T00:36:30;52.35;38.37;74.78;;
57092;Laerm;42968;52.094;4.328;2023-04-01T00:38:55;61.89;40.03;76.46;;
57092;Laerm;42968;52.094;4.328;2023-04-01T00:41:22;61.40;40.13;74.70;;
57092;Laerm;42968;52.094;4.328;2023-04-01T00:43:49;65.00;42.09;78.87;;
57092;Laerm;42968;52.094;4.328;2023-04-01T00:46:17;59.95;38.21;77.21;;
57092;Laerm;42968;52.094;4.328;2023-04-01T00:48:50;61.91;40.13;79.39;;
57092;Laerm;42968;52.094;4.328;2023-04-01T00:51:18;66.27;41.82;80.64;;
57092;Laerm;42968;52.094;4.328;2023-04-01T00:53:47;48.95;39.92;72.31;;
57092;Laerm;42968;52.094;4.328;2023-04-01T00:56:14;56.63;40.33;77.35;;
57092;Laerm;42968;52.094;4.328;2023-04-01T00:58:42;50.50;40.03;72.86;;
57092;Laerm;42968;52.094;4.328;2023-04-01T01:01:08;67.18;42.29;79.99;;
57092;Laerm;42968;52.094;4.328;2023-04-01T01:03:34;63.21;40.62;79.13;;
57092;Laerm;42968;52.094;4.328;2023-04-01T01:06:06;56.59;40.89;75.63;;
57092;Laerm;42968;52.094;4.328;2023-04-01T01:08:38;64.80;41.61;79.99;;
57092;Laerm;42968;52.094;4.328;2023-04-01T01:11:08;64.04;40.71;77.31;;
57092;Laerm;42968;52.094;4.328;2023-04-01T01:13:40;58.09;41.14;76.81;;
57092;Laerm;42968;52.094;4.328;2023-04-01T01:16:16;63.01;40.13;79.15;;
57092;Laerm;42968;52.094;4.328;2023-04-01T01:18:46;61.92;41.22;79.36;;
57092;Laerm;42968;52.094;4.328;2023-04-01T01:26:51;64.15;38.95;82.68;;
57092;Laerm;42968;52.094;4.328;2023-04-01T01:36:59;63.18;41.75;75.68;;
57092;Laerm;42968;52.094;4.328;2023-04-01T01:39:26;64.71;40.13;75.70;;
57092;Laerm;42968;52.094;4.328;2023-04-01T01:41:57;62.53;38.81;78.42;;
57092;Laerm;42968;52.094;4.328;2023-04-01T01:44:25;56.80;37.70;76.05;;
57092;Laerm;42968;52.094;4.328;2023-04-01T01:46:51;60.70;36.69;75.91;;
57092;Laerm;42968;52.094;4.328;2023-04-01T01:49:16;59.80;37.88;72.34;;
57092;Laerm;42968;52.094;4.328;2023-04-01T01:51:43;64.13;37.52;82.97;;
57092;Laerm;42968;52.094;4.328;2023-04-01T01:54:16;62.17;40.03;79.65;;
57092;Laerm;42968;52.094;4.328;2023-04-01T01:56:43;57.39;37.12;77.49;;
57092;Laerm;42968;52.094;4.328;2023-04-01T01:59:09;61.50;37.12;79.02;;
57092;Laerm;42968;52.094;4.328;2023-04-01T02:01:37;46.77;37.52;64.99;;
57092;Laerm;42968;52.094;4.328;2023-04-01T02:04:04;59.87;38.81;76.88;;
57092;Laerm;42968;52.094;4.328;2023-04-01T02:06:30;64.37;39.58;77.12;;
57092;Laerm;42968;52.094;4.328;2023-04-01T02:08:59;50.66;37.32;70.90;;
57092;Laerm;42968;52.094;4.328;2023-04-01T02:11:27;42.99;35.36;57.83;;
57092;Laerm;42968;52.094;4.328;2023-04-01T02:13:58;62.18;36.56;78.44;;
57092;Laerm;42968;52.094;4.328;2023-04-01T02:16:38;60.07;37.70;78.09;;
57092;Laerm;42968;52.094;4.328;2023-04-01T02:19:05;63.54;38.67;78.80;;
57092;Laerm;42968;52.094;4.328;2023-04-01T02:21:32;61.00;38.67;74.84;;
57092;Laerm;42968;52.094;4.328;2023-04-01T02:23:58;62.51;38.95;78.46;;
57092;Laerm;42968;52.094;4.328;2023-04-01T02:26:25;61.99;39.70;77.68;;
57092;Laerm;42968;52.094;4.328;2023-04-01T02:28:52;57.74;36.91;71.54;;
57092;Laerm;42968;52.094;4.328;2023-04-01T02:31:17;56.41;35.36;72.57;;
57092;Laerm;42968;52.094;4.328;2023-04-01T02:33:43;59.67;37.52;80.49;;
57092;Laerm;42968;52.094;4.328;2023-04-01T02:36:13;56.41;36.91;71.95;;
57092;Laerm;42968;52.094;4.328;2023-04-01T02:38:38;56.29;36.91;72.30;;
57092;Laerm;42968;52.094;4.328;2023-04-01T02:41:04;62.86;37.52;79.12;;
57092;Laerm;42968;52.094;4.328;2023-04-01T02:43:31;57.32;37.12;73.13;;
57092;Laerm;42968;52.094;4.328;2023-04-01T02:45:56;58.61;36.45;75.79;;
57092;Laerm;42968;52.094;4.328;2023-04-01T02:48:21;46.21;36.45;63.35;;
57092;Laerm;42968;52.094;4.328;2023-04-01T02:50:47;61.47;38.37;75.81;;
57092;Laerm;42968;52.094;4.328;2023-04-01T02:53:12;42.17;36.69;56.06;;
57092;Laerm;42968;52.094;4.328;2023-04-01T02:55:38;55.51;37.12;75.13;;
57092;Laerm;42968;52.094;4.328;2023-04-01T02:58:03;60.26;38.21;76.43;;
57092;Laerm;42968;52.094;4.328;2023-04-01T03:00:28;57.09;37.52;76.61;;
57092;Laerm;42968;52.094;4.328;2023-04-01T03:02:54;51.64;37.32;69.83;;
57092;Laerm;42968;52.094;4.328;2023-04-01T03:05:19;60.14;37.12;76.05;;
57092;Laerm;42968;52.094;4.328;2023-04-01T03:07:45;56.41;36.45;72.81;;
57092;Laerm;42968;52.094;4.328;2023-04-01T03:10:10;43.37;37.32;61.92;;
57092;Laerm;42968;52.094;4.328;2023-04-01T03:12:36;55.00;36.45;70.41;;
57092;Laerm;42968;52.094;4.328;2023-04-01T03:15:01;56.20;37.12;77.16;;
57092;Laerm;42968;52.094;4.328;2023-04-01T03:17:26;61.52;37.88;78.58;;
57092;Laerm;42968;52.094;4.328;2023-04-01T03:19:52;61.58;37.52;77.24;;
57092;Laerm;42968;52.094;4.328;2023-04-01T03:22:17;64.50;41.75;79.17;;
57092;Laerm;42968;52.094;4.328;2023-04-01T03:24:45;63.32;38.67;81.79;;
57092;Laerm;42968;52.094;4.328;2023-04-01T03:27:11;66.30;42.53;80.99;;
57092;Laerm;42968;52.094;4.328;2023-04-01T03:29:36;65.88;41.53;84.94;;
57092;Laerm;42968;52.094;4.328;2023-04-01T03:32:01;64.88;41.14;80.07;;
57092;Laerm;42968;52.094;4.328;2023-04-01T03:34:27;62.94;38.52;81.18;;
57092;Laerm;42968;52.094;4.328;2023-04-01T03:36:52;64.41;38.02;78.43;;
57092;Laerm;42968;52.094;4.328;2023-04-01T03:39:17;62.94;38.95;79.80;;
57092;Laerm;42968;52.094;4.328;2023-04-01T03:41:45;62.90;37.88;80.44;;
57092;Laerm;42968;52.094;4.328;2023-04-01T03:44:11;62.41;41.53;75.20;;
57092;Laerm;42968;52.094;4.328;2023-04-01T03:46:36;66.30;40.62;84.80;;
57092;Laerm;42968;52.094;4.328;2023-04-01T03:49:02;60.97;38.95;75.95;;
57092;Laerm;42968;52.094;4.328;2023-04-01T03:51:28;62.75;38.81;77.84;;
57092;Laerm;42968;52.094;4.328;2023-04-01T03:53:53;65.38;44.35;81.85;;
57092;Laerm;42968;52.094;4.328;2023-04-01T03:56:18;55.10;38.95;74.18;;
57092;Laerm;42968;52.094;4.328;2023-04-01T03:58:43;57.42;38.87;73.51;;
57092;Laerm;42968;52.094;4.328;2023-04-01T04:01:19;61.11;42.09;74.61;;
57092;Laerm;42968;52.094;4.328;2023-04-01T04:03:48;63.53;40.08;81.51;;
57092;Laerm;42968;52.094;4.328;2023-04-01T04:06:14;63.59;39.70;78.66;;
57092;Laerm;42968;52.094;4.328;2023-04-01T04:08:40;64.16;41.61;78.32;;
57092;Laerm;42968;52.094;4.328;2023-04-01T04:11:05;65.84;41.38;80.26;;
57092;Laerm;42968;52.094;4.328;2023-04-01T04:13:31;65.52;41.46;78.79;;
57092;Laerm;42968;52.094;4.328;2023-04-01T04:15:57;66.58;45.54;84.14;;
57092;Laerm;42968;52.094;4.328;2023-04-01T04:18:22;61.31;43.09;76.28;;
57092;Laerm;42968;52.094;4.328;2023-04-01T04:20:48;64.56;40.43;78.22;;
57092;Laerm;42968;52.094;4.328;2023-04-01T04:23:15;65.63;42.88;80.74;;
57092;Laerm;42968;52.094;4.328;2023-04-01T04:25:40;66.20;45.77;81.82;;
57092;Laerm;42968;52.094;4.328;2023-04-01T04:28:05;66.05;42.65;79.33;;
57092;Laerm;42968;52.094;4.328;2023-04-01T04:30:31;66.56;42.71;82.25;;
57092;Laerm;42968;52.094;4.328;2023-04-01T04:32:56;67.99;42.03;83.09;;
57092;Laerm;42968;52.094;4.328;2023-04-01T04:35:21;64.87;42.76;80.19;;
57092;Laerm;42968;52.094;4.328;2023-04-01T04:37:46;64.85;41.19;79.24;;
57092;Laerm;42968;52.094;4.328;2023-04-01T04:40:12;66.45;50.39;77.84;;
57092;Laerm;42968;52.094;4.328;2023-04-01T04:42:38;64.56;42.03;77.61;;
57092;Laerm;42968;52.094;4.328;2023-04-01T04:45:03;67.28;46.97;81.26;;
57092;Laerm;42968;52.094;4.328;2023-04-01T04:47:28;66.30;44.03;77.10;;
57092;Laerm;42968;52.094;4.328;2023-04-01T04:49:54;69.30;48.25;80.92;;
57092;Laerm;42968;52.094;4.328;2023-04-01T04:52:19;69.09;48.99;82.18;;
57092;Laerm;42968;52.094;4.328;2023-04-01T04:54:44;66.64;45.89;78.22;;
57092;Laerm;42968;52.094;4.328;2023-04-01T04:57:09;60.76;41.30;75.91;;
57092;Laerm;42968;52.094;4.328;2023-04-01T04:59:35;66.40;43.09;85.98;;
57092;Laerm;42968;52.094;4.328;2023-04-01T05:02:01;68.14;46.40;78.83;;
57092;Laerm;42968;52.094;4.328;2023-04-01T05:04:26;66.23;45.77;79.71;;
57092;Laerm;42968;52.094;4.328;2023-04-01T05:06:52;65.90;43.86;78.43;;
57092;Laerm;42968;52.094;4.328;2023-04-01T05:09:17;64.21;45.77;77.21;;
57092;Laerm;42968;52.094;4.328;2023-04-01T05:11:42;66.92;49.39;78.08;;
57092;Laerm;42968;52.094;4.328;2023-04-01T05:14:12;65.73;48.52;76.01;;
57092;Laerm;42968;52.094;4.328;2023-04-01T05:16:37;67.08;48.10;78.92;;
57092;Laerm;42968;52.094;4.328;2023-04-01T05:19:03;67.31;47.34;80.81;;
57092;Laerm;42968;52.094;4.328;2023-04-01T05:21:28;68.12;44.43;80.50;;
57092;Laerm;42968;52.094;4.328;2023-04-01T05:23:53;65.63;42.71;78.94;;
57092;Laerm;42968;52.094;4.328;2023-04-01T05:26:19;64.30;46.80;84.30;;
57092;Laerm;42968;52.094;4.328;2023-04-01T05:28:44;62.53;42.35;76.87;;
57092;Laerm;42968;52.094;4.328;2023-04-01T05:31:09;64.62;46.15;76.71;;
57092;Laerm;42968;52.094;4.328;2023-04-01T05:33:35;65.41;44.58;75.60;;
57092;Laerm;42968;52.094;4.328;2023-04-01T05:36:10;69.48;46.50;90.41;;
57092;Laerm;42968;52.094;4.328;2023-04-01T05:38:36;67.01;46.55;80.06;;
57092;Laerm;42968;52.094;4.328;2023-04-01T05:41:02;68.27;48.99;80.05;;
57092;Laerm;42968;52.094;4.328;2023-04-01T05:43:27;70.15;46.80;86.03;;
57092;Laerm;42968;52.094;4.328;2023-04-01T05:45:53;67.95;48.99;79.68;;
57092;Laerm;42968;52.094;4.328;2023-04-01T05:48:18;68.66;48.98;78.09;;
57092;Laerm;42968;52.094;4.328;2023-04-01T05:50:43;68.73;48.85;82.53;;
57092;Laerm;42968;52.094;4.328;2023-04-01T05:53:09;69.04;47.34;84.73;;
57092;Laerm;42968;52.094;4.328;2023-04-01T05:55:35;69.74;50.55;79.48;;
57092;Laerm;42968;52.094;4.328;2023-04-01T05:58:00;69.08;49.88;78.83;;
57092;Laerm;42968;52.094;4.328;2023-04-01T06:00:26;67.59;48.90;76.94;;
57092;Laerm;42968;52.094;4.328;2023-04-01T06:02:51;69.34;51.16;82.21;;
57092;Laerm;42968;52.094;4.328;2023-04-01T06:05:21;68.22;51.91;77.40;;
57092;Laerm;42968;52.094;4.328;2023-04-01T06:07:47;70.27;53.47;82.54;;
57092;Laerm;42968;52.094;4.328;2023-04-01T06:10:14;70.68;52.76;82.12;;
57092;Laerm;42968;52.094;4.328;2023-04-01T06:15:25;70.40;52.52;84.87;;
57092;Laerm;42968;52.094;4.328;2023-04-01T06:23:20;69.85;50.13;82.33;;
57092;Laerm;42968;52.094;4.328;2023-04-01T06:28:18;67.07;43.94;78.64;;
57092;Laerm;42968;52.094;4.328;2023-04-01T06:31:01;68.36;46.15;81.10;;
57092;Laerm;42968;52.094;4.328;2023-04-01T06:44:13;70.50;50.17;83.62;;
57092;Laerm;42968;52.094;4.328;2023-04-01T06:46:44;70.89;54.15;79.44;;
57092;Laerm;42968;52.094;4.328;2023-04-01T06:49:29;69.96;50.28;78.88;;
57092;Laerm;42968;52.094;4.328;2023-04-01T06:54:34;71.83;52.70;81.07;;
57092;Laerm;42968;52.094;4.328;2023-04-01T06:57:03;72.49;51.80;81.76;;
57092;Laerm;42968;52.094;4.328;2023-04-01T06:59:32;71.46;55.54;81.56;;
57092;Laerm;42968;52.094;4.328;2023-04-01T07:02:45;69.07;48.88;77.94;;
57092;Laerm;42968;52.094;4.328;2023-04-01T07:04:44;69.08;51.60;81.76;;
57092;Laerm;42968;52.094;4.328;2023-04-01T07:09:50;70.29;46.52;79.21;;
57092;Laerm;42968;52.094;4.328;2023-04-01T07:14:48;70.88;52.06;80.49;;
57092;Laerm;42968;52.094;4.328;2023-04-01T07:17:51;68.99;50.06;80.55;;
57092;Laerm;42968;52.094;4.328;2023-04-01T07:20:13;69.03;55.16;78.25;;
57092;Laerm;42968;52.094;4.328;2023-04-01T07:22:43;72.49;49.55;89.45;;
57092;Laerm;42968;52.094;4.328;2023-04-01T07:27:44;70.25;54.95;81.54;;
57092;Laerm;42968;52.094;4.328;2023-04-01T07:30:16;70.10;50.29;79.52;;
57092;Laerm;42968;52.094;4.328;2023-04-01T07:32:44;70.31;47.54;80.69;;
57092;Laerm;42968;52.094;4.328;2023-04-01T07:42:38;71.81;49.10;79.64;;
57092;Laerm;42968;52.094;4.328;2023-04-01T07:50:11;71.78;56.45;81.98;;
57092;Laerm;42968;52.094;4.328;2023-04-01T07:56:25;71.26;54.30;79.51;;
57092;Laerm;42968;52.094;4.328;2023-04-01T07:58:20;71.97;50.89;80.73;;
57092;Laerm;42968;52.094;4.328;2023-04-01T08:05:58;71.32;50.94;79.86;;
57092;Laerm;42968;52.094;4.328;2023-04-01T08:11:46;72.45;52.94;81.21;;
57092;Laerm;42968;52.094;4.328;2023-04-01T08:14:21;70.87;53.06;79.38;;
57092;Laerm;42968;52.094;4.328;2023-04-01T08:22:04;70.85;49.08;79.39;;
57092;Laerm;42968;52.094;4.328;2023-04-01T08:24:35;70.59;52.81;78.16;;
57092;Laerm;42968;52.094;4.328;2023-04-01T08:27:03;73.14;53.53;85.80;;
57092;Laerm;42968;52.094;4.328;2023-04-01T08:34:23;72.61;53.81;81.24;;
57092;Laerm;42968;52.094;4.328;2023-04-01T08:37:00;72.54;49.58;82.64;;
57092;Laerm;42968;52.094;4.328;2023-04-01T08:39:32;71.45;52.84;83.08;;
57092;Laerm;42968;52.094;4.328;2023-04-01T08:59:59;73.33;58.67;83.37;;
57092;Laerm;42968;52.094;4.328;2023-04-01T09:07:56;72.24;55.96;81.25;;
57092;Laerm;42968;52.094;4.328;2023-04-01T09:10:47;72.53;54.66;85.17;;
57092;Laerm;42968;52.094;4.328;2023-04-01T09:13:24;72.99;54.12;81.87;;
57092;Laerm;42968;52.094;4.328;2023-04-01T09:44:46;75.92;58.29;87.14;;
57092;Laerm;42968;52.094;4.328;2023-04-01T09:52:36;75.02;52.28;87.16;;
57092;Laerm;42968;52.094;4.328;2023-04-01T09:57:39;75.11;59.57;82.47;;
57092;Laerm;42968;52.094;4.328;2023-04-01T10:08:01;74.40;56.02;81.21;;
57092;Laerm;42968;52.094;4.328;2023-04-01T10:10:39;74.86;57.88;88.96;;
57092;Laerm;42968;52.094;4.328;2023-04-01T10:16:20;74.62;56.87;83.80;;
57092;Laerm;42968;52.094;4.328;2023-04-01T10:21:35;73.80;53.79;82.10;;
57092;Laerm;42968;52.094;4.328;2023-04-01T10:33:08;74.51;52.26;82.81;;
57092;Laerm;42968;52.094;4.328;2023-04-01T11:03:26;72.17;47.61;79.46;;
57092;Laerm;42968;52.094;4.328;2023-04-01T11:46:10;76.64;52.67;86.45;;
57092;Laerm;42968;52.094;4.328;2023-04-01T12:01:16;75.02;52.38;82.11;;
57092;Laerm;42968;52.094;4.328;2023-04-01T12:03:54;75.87;52.68;87.88;;
57092;Laerm;42968;52.094;4.328;2023-04-01T12:16:58;74.53;61.93;83.02;;
57092;Laerm;42968;52.094;4.328;2023-04-01T12:20:01;75.11;61.39;83.03;;
57092;Laerm;42968;52.094;4.328;2023-04-01T12:27:46;74.28;59.45;82.95;;
57092;Laerm;42968;52.094;4.328;2023-04-01T12:33:03;73.25;51.60;80.25;;
57092;Laerm;42968;52.094;4.328;2023-04-01T12:38:51;74.38;55.32;82.14;;
57092;Laerm;42968;52.094;4.328;2023-04-01T12:49:25;75.10;63.25;84.43;;
57092;Laerm;42968;52.094;4.328;2023-04-01T13:20:41;75.15;51.72;84.16;;
57092;Laerm;42968;52.094;4.328;2023-04-01T13:23:26;74.79;53.72;84.02;;
57092;Laerm;42968;52.094;4.328;2023-04-01T13:41:18;72.40;56.60;81.37;;
57092;Laerm;42968;52.094;4.328;2023-04-01T13:44:00;71.90;57.75;82.41;;
57092;Laerm;42968;52.094;4.328;2023-04-01T14:10:07;72.69;55.62;82.78;;
57092;Laerm;42968;52.094;4.328;2023-04-01T14:15:22;72.30;50.14;80.61;;
57092;Laerm;42968;52.094;4.328;2023-04-01T14:25:41;72.72;57.43;80.97;;
57092;Laerm;42968;52.094;4.328;2023-04-01T14:31:06;72.32;50.41;80.28;;
57092;Laerm;42968;52.094;4.328;2023-04-01T14:33:43;71.98;57.40;83.31;;
57092;Laerm;42968;52.094;4.328;2023-04-01T14:41:56;69.95;50.73;77.03;;
57092;Laerm;42968;52.094;4.328;2023-04-01T14:49:34;71.23;55.54;79.65;;
57092;Laerm;42968;52.094;4.328;2023-04-01T14:52:05;72.10;52.14;78.56;;
57092;Laerm;42968;52.094;4.328;2023-04-01T14:54:38;70.97;51.70;79.65;;
57092;Laerm;42968;52.094;4.328;2023-04-01T14:57:22;72.00;56.13;83.86;;
57092;Laerm;42968;52.094;4.328;2023-04-01T15:18:09;70.31;56.00;77.74;;
57092;Laerm;42968;52.094;4.328;2023-04-01T15:26:05;71.33;53.21;81.75;;
57092;Laerm;42968;52.094;4.328;2023-04-01T15:38:46;70.65;52.69;84.83;;
57092;Laerm;42968;52.094;4.328;2023-04-01T15:41:15;71.31;54.68;81.54;;
57092;Laerm;42968;52.094;4.328;2023-04-01T15:43:43;70.54;52.99;78.80;;
57092;Laerm;42968;52.094;4.328;2023-04-01T15:48:56;72.53;55.71;80.42;;
57092;Laerm;42968;52.094;4.328;2023-04-01T15:53:51;71.28;52.19;79.59;;
57092;Laerm;42968;52.094;4.328;2023-04-01T15:59:09;72.30;58.26;86.79;;
57092;Laerm;42968;52.094;4.328;2023-04-01T16:01:59;70.41;50.20;78.59;;
57092;Laerm;42968;52.094;4.328;2023-04-01T16:07:10;71.93;54.10;82.14;;
57092;Laerm;42968;52.094;4.328;2023-04-01T16:12:36;69.79;50.87;77.70;;
57092;Laerm;42968;52.094;4.328;2023-04-01T16:26:05;69.40;53.37;81.50;;
57092;Laerm;42968;52.094;4.328;2023-04-01T16:31:29;72.66;50.70;88.66;;
57092;Laerm;42968;52.094;4.328;2023-04-01T16:34:39;70.39;51.35;79.91;;
57092;Laerm;42968;52.094;4.328;2023-04-01T16:36:46;70.47;49.36;83.21;;
57092;Laerm;42968;52.094;4.328;2023-04-01T16:39:22;69.85;51.88;80.27;;
57092;Laerm;42968;52.094;4.328;2023-04-01T16:41:53;71.04;53.78;79.95;;
57092;Laerm;42968;52.094;4.328;2023-04-01T16:44:23;70.12;48.13;80.46;;
57092;Laerm;42968;52.094;4.328;2023-04-01T16:46:53;68.55;46.02;82.97;;
57092;Laerm;42968;52.094;4.328;2023-04-01T16:52:04;68.44;54.88;80.23;;
57092;Laerm;42968;52.094;4.328;2023-04-01T17:03:26;70.37;51.16;81.37;;
57092;Laerm;42968;52.094;4.328;2023-04-01T17:13:22;68.86;50.85;77.40;;
57092;Laerm;42968;52.094;4.328;2023-04-01T17:21:10;67.34;48.08;76.94;;
57092;Laerm;42968;52.094;4.328;2023-04-01T17:23:37;69.76;53.04;82.85;;
57092;Laerm;42968;52.094;4.328;2023-04-01T17:28:48;66.81;47.02;80.78;;
57092;Laerm;42968;52.094;4.328;2023-04-01T17:41:38;69.14;46.62;78.41;;
57092;Laerm;42968;52.094;4.328;2023-04-01T17:47:09;67.38;46.30;77.12;;
57092;Laerm;42968;52.094;4.328;2023-04-01T18:00:02;67.87;52.36;76.65;;
57092;Laerm;42968;52.094;4.328;2023-04-01T18:10:33;69.26;50.32;79.72;;
57092;Laerm;42968;52.094;4.328;2023-04-01T18:20:55;65.61;42.22;75.13;;
57092;Laerm;42968;52.094;4.328;2023-04-01T18:23:28;71.73;43.86;88.92;;
57092;Laerm;42968;52.094;4.328;2023-04-01T18:26:02;66.62;46.40;80.70;;
57092;Laerm;42968;52.094;4.328;2023-04-01T18:38:48;67.66;48.76;78.10;;
57092;Laerm;42968;52.094;4.328;2023-04-01T18:41:22;65.21;46.38;77.67;;
57092;Laerm;42968;52.094;4.328;2023-04-01T18:49:20;68.87;48.36;84.40;;
57092;Laerm;42968;52.094;4.328;2023-04-01T18:51:49;64.26;42.98;75.80;;
57092;Laerm;42968;52.094;4.328;2023-04-01T18:54:27;67.33;45.42;77.66;;
57092;Laerm;42968;52.094;4.328;2023-04-01T19:02:27;67.51;47.14;79.46;;
57092;Laerm;42968;52.094;4.328;2023-04-01T19:15:32;64.40;44.39;74.58;;
57092;Laerm;42968;52.094;4.328;2023-04-01T19:21:18;66.78;46.05;78.26;;
57092;Laerm;42968;52.094;4.328;2023-04-01T19:25:50;67.00;41.46;79.90;;
57092;Laerm;42968;52.094;4.328;2023-04-01T19:36:28;66.93;46.35;75.49;;
57092;Laerm;42968;52.094;4.328;2023-04-01T19:38:59;65.64;44.47;75.63;;
57092;Laerm;42968;52.094;4.328;2023-04-01T19:41:34;66.11;43.77;77.35;;
57092;Laerm;42968;52.094;4.328;2023-04-01T19:46:43;65.89;47.40;75.27;;
57092;Laerm;42968;52.094;4.328;2023-04-01T19:51:46;66.69;53.21;76.33;;
57092;Laerm;42968;52.094;4.328;2023-04-01T19:59:30;64.66;46.35;76.45;;
57092;Laerm;42968;52.094;4.328;2023-04-01T20:02:01;67.09;47.59;76.91;;
57092;Laerm;42968;52.094;4.328;2023-04-01T20:04:30;66.55;46.48;84.69;;
57092;Laerm;42968;52.094;4.328;2023-04-01T20:14:50;67.58;45.54;89.15;;
57092;Laerm;42968;52.094;4.328;2023-04-01T20:17:25;68.71;49.04;79.89;;
57092;Laerm;42968;52.094;4.328;2023-04-01T20:24:47;68.40;48.78;82.60;;
57092;Laerm;42968;52.094;4.328;2023-04-01T20:35:06;66.61;48.29;78.18;;
57092;Laerm;42968;52.094;4.328;2023-04-01T20:37:48;66.36;46.82;77.79;;
57092;Laerm;42968;52.094;4.328;2023-04-01T20:40:20;67.93;46.97;84.27;;
57092;Laerm;42968;52.094;4.328;2023-04-01T20:50:51;67.68;49.24;78.25;;
57092;Laerm;42968;52.094;4.328;2023-04-01T21:03:31;66.60;50.42;79.36;;
57092;Laerm;42968;52.094;4.328;2023-04-01T21:19:03;65.88;44.39;76.65;;
57092;Laerm;42968;52.094;4.328;2023-04-01T21:21:43;63.22;42.47;76.44;;
57092;Laerm;42968;52.094;4.328;2023-04-01T21:34:49;66.38;47.50;75.03;;
57092;Laerm;42968;52.094;4.328;2023-04-01T21:37:27;62.39;40.89;76.10;;
57092;Laerm;42968;52.094;4.328;2023-04-01T21:53:09;65.99;45.14;75.83;;
57092;Laerm;42968;52.094;4.328;2023-04-01T22:06:49;63.01;44.03;76.33;;
57092;Laerm;42968;52.094;4.328;2023-04-01T22:14:33;63.57;43.90;75.51;;
57092;Laerm;42968;52.094;4.328;2023-04-01T22:25:09;64.09;41.61;75.98;;
57092;Laerm;42968;52.094;4.328;2023-04-01T22:32:48;65.23;40.33;80.20;;
57092;Laerm;42968;52.094;4.328;2023-04-01T22:45:17;57.83;37.52;72.51;;
57092;Laerm;42968;52.094;4.328;2023-04-01T22:50:18;64.72;43.80;75.96;;
57092;Laerm;42968;52.094;4.328;2023-04-01T22:52:46;64.48;44.54;78.68;;
57092;Laerm;42968;52.094;4.328;2023-04-01T22:55:15;63.27;41.30;75.16;;
57092;Laerm;42968;52.094;4.328;2023-04-01T22:57:54;65.60;40.13;78.86;;
57092;Laerm;42968;52.094;4.328;2023-04-01T23:00:27;62.71;40.80;75.54;;
57092;Laerm;42968;52.094;4.328;2023-04-01T23:05:32;63.40;38.37;75.67;;
57092;Laerm;42968;52.094;4.328;2023-04-01T23:10:45;61.33;39.70;76.47;;
57092;Laerm;42968;52.094;4.328;2023-04-01T23:13:14;63.06;43.19;72.76;;
57092;Laerm;42968;52.094;4.328;2023-04-01T23:15:41;62.42;40.03;73.90;;
57092;Laerm;42968;52.094;4.328;2023-04-01T23:21:13;59.03;38.81;73.13;;
57092;Laerm;42968;52.094;4.328;2023-04-01T23:28:55;54.32;36.69;72.32;;
57092;Laerm;42968;52.094;4.328;2023-04-01T23:34:00;58.91;37.12;73.06;;
57092;Laerm;42968;52.094;4.328;2023-04-01T23:36:26;60.54;39.08;75.89;;
57092;Laerm;42968;52.094;4.328;2023-04-01T23:38:52;59.43;39.08;73.41;;
57092;Laerm;42968;52.094;4.328;2023-04-01T23:41:23;62.11;38.99;74.37;;
57092;Laerm;42968;52.094;4.328;2023-04-01T23:44:12;61.29;36.20;73.85;;
57092;Laerm;42968;52.094;4.328;2023-04-01T23:46:35;61.22;39.81;73.14;;
57092;Laerm;42968;52.094;4.328;2023-04-01T23:49:02;55.46;35.36;73.95;;
57092;Laerm;42968;52.094;4.328;2023-04-01T23:51:29;61.95;40.54;76.37;;
57092;Laerm;42968;52.094;4.328;2023-04-01T23:54:10;58.41;36.45;71.82;;
57092;Laerm;42968;52.094;4.328;2023-04-01T23:56:46;55.43;36.20;70.53;;
57092;Laerm;42968;52.094;4.328;2023-04-01T23:59:17;58.84;37.32;77.53;;
